Time;durP1;ratioP1;P1;durP2;ratioP2;P2;SDS_P1;SDS_P2;PMS_P1;PMS_P2;Temp;Humidity;BMP_temperature;BMP_pressure;BME280_temperature;BME280_humidity;BME280_pressure;Samples;Min_cycle;Max_cycle;Signal;HPM_P1;HPM_P2
2022/09/13 00:00:05;;;;;;;3.88;1.08;;;16.10;99.90;;;;;;5042260;28;20199;-79
2022/09/13 00:02:36;;;;;;;3.17;0.90;;;16.30;99.90;;;;;;5042655;28;20196;-79
2022/09/13 00:05:07;;;;;;;2.42;0.98;;;16.40;99.90;;;;;;5043193;28;20577;-79
2022/09/13 00:07:38;;;;;;;3.40;0.75;;;16.60;99.90;;;;;;5044151;28;20219;-79
2022/09/13 00:10:10;;;;;;;4.88;1.33;;;16.60;99.90;;;;;;5044006;28;20227;-79
2022/09/13 00:12:40;;;;;;;8.20;1.45;;;16.70;99.90;;;;;;5044872;28;20340;-79
2022/09/13 00:15:14;;;;;;;5.45;1.80;;;16.70;99.90;;;;;;5060305;28;20192;-80
2022/09/13 00:17:45;;;;;;;3.10;1.15;;;16.60;99.90;;;;;;5072131;28;20206;-80
2022/09/13 00:20:16;;;;;;;1.90;1.00;;;16.70;99.90;;;;;;5071092;28;20192;-80
2022/09/13 00:22:47;;;;;;;3.45;1.20;;;16.90;99.90;;;;;;5067896;28;20193;-81
2022/09/13 00:25:18;;;;;;;2.97;0.85;;;17.10;99.90;;;;;;5066111;28;20750;-80
2022/09/13 00:27:49;;;;;;;3.65;0.95;;;17.30;99.90;;;;;;5073123;28;20879;-80
2022/09/13 00:30:23;;;;;;;3.50;1.00;;;17.30;99.90;;;;;;5072849;28;20227;-79
2022/09/13 00:32:54;;;;;;;2.42;0.88;;;17.40;99.90;;;;;;5072674;28;20208;-79
2022/09/13 00:35:24;;;;;;;2.58;0.80;;;17.60;99.90;;;;;;5069918;28;20191;-79
2022/09/13 00:37:55;;;;;;;4.35;1.15;;;17.70;99.90;;;;;;5061275;28;20203;-78
2022/09/13 00:40:26;;;;;;;4.80;1.00;;;17.80;99.90;;;;;;5048779;28;20232;-79
2022/09/13 00:42:57;;;;;;;3.60;1.00;;;18.00;99.90;;;;;;5051426;28;20207;-80
2022/09/13 00:45:30;;;;;;;4.18;1.10;;;18.00;99.90;;;;;;5048519;28;20204;-79
2022/09/13 00:48:03;;;;;;;2.38;1.00;;;18.00;99.90;;;;;;5048962;28;20192;-78
2022/09/13 00:50:37;;;;;;;2.15;1.10;;;18.00;99.90;;;;;;5047320;28;20249;-79
2022/09/13 00:53:11;;;;;;;5.00;1.60;;;17.80;99.90;;;;;;5049307;28;20204;-78
2022/09/13 00:55:50;;;;;;;7.68;1.55;;;17.70;99.90;;;;;;5048774;28;20208;-78
2022/09/13 00:58:24;;;;;;;3.90;1.70;;;17.60;99.90;;;;;;5048145;28;20282;-78
2022/09/13 01:00:58;;;;;;;4.63;1.20;;;17.60;99.90;;;;;;5048156;28;20227;-78
2022/09/13 01:03:31;;;;;;;5.40;1.42;;;17.40;99.90;;;;;;5048482;28;20210;-79
2022/09/13 01:06:09;;;;;;;4.15;1.30;;;17.50;99.90;;;;;;5048673;28;20211;-78
2022/09/13 01:08:42;;;;;;;7.78;1.90;;;17.50;99.90;;;;;;5053285;28;20204;-80
2022/09/13 01:11:19;;;;;;;4.65;1.52;;;17.30;99.90;;;;;;5048151;28;20219;-79
2022/09/13 01:13:50;;;;;;;6.80;2.42;;;17.30;99.90;;;;;;5050722;28;20198;-78
2022/09/13 01:16:23;;;;;;;6.90;1.67;;;17.10;99.90;;;;;;5048783;28;20196;-80
2022/09/13 01:18:54;;;;;;;4.13;1.67;;;17.10;99.90;;;;;;5048030;28;20253;-78
2022/09/13 01:21:54;;;;;;;5.05;1.60;;;17.00;99.90;;;;;;5047246;28;20239;-79
2022/09/13 01:24:58;;;;;;;4.30;1.70;;;16.90;99.90;;;;;;5044269;28;20204;-78
2022/09/13 01:27:48;;;;;;;4.97;1.70;;;16.90;99.90;;;;;;5041851;28;20199;-79
2022/09/13 01:30:23;;;;;;;3.03;1.33;;;17.00;99.90;;;;;;5044792;28;20210;-78
2022/09/13 01:33:24;;;;;;;2.92;1.17;;;17.20;99.90;;;;;;5044140;28;21863;-78
2022/09/13 01:36:15;;;;;;;5.43;1.20;;;17.30;99.90;;;;;;5032696;28;20206;-78
2022/09/13 01:38:58;;;;;;;4.38;1.17;;;17.40;99.90;;;;;;5044435;28;20243;-78
2022/09/13 01:41:52;;;;;;;4.03;1.30;;;17.60;99.90;;;;;;5044411;28;20285;-79
2022/09/13 01:44:41;;;;;;;5.93;1.13;;;17.90;99.90;;;;;;5049888;28;22132;-79
2022/09/13 01:47:27;;;;;;;2.88;1.40;;;18.00;99.90;;;;;;5043960;28;21473;-79
2022/09/13 01:50:13;;;;;;;5.82;1.40;;;18.10;99.90;;;;;;5043596;28;20199;-79
2022/09/13 01:52:52;;;;;;;5.28;1.63;;;18.20;99.90;;;;;;5044071;28;20224;-78
2022/09/13 01:55:30;;;;;;;3.15;1.20;;;18.30;99.90;;;;;;5043901;28;20687;-79
2022/09/13 01:58:10;;;;;;;3.05;1.20;;;18.30;99.90;;;;;;5044678;28;20199;-79
2022/09/13 02:00:47;;;;;;;4.60;1.60;;;18.20;99.90;;;;;;5042477;28;20195;-79
2022/09/13 02:03:22;;;;;;;6.15;1.70;;;18.30;99.90;;;;;;5045963;28;20212;-78
2022/09/13 02:05:59;;;;;;;3.17;1.27;;;18.30;99.90;;;;;;5046548;28;20227;-80
2022/09/13 02:08:37;;;;;;;4.80;1.40;;;18.40;99.90;;;;;;5049946;28;20195;-81
2022/09/13 02:11:12;;;;;;;7.22;1.83;;;18.40;99.90;;;;;;5045788;28;20238;-77
2022/09/13 02:13:49;;;;;;;9.02;1.80;;;18.30;99.90;;;;;;5044919;28;21437;-79
2022/09/13 02:16:24;;;;;;;6.65;1.30;;;18.30;99.90;;;;;;5046861;28;20200;-79
2022/09/13 02:19:00;;;;;;;3.20;1.50;;;18.40;99.90;;;;;;5042999;28;20210;-79
2022/09/13 02:21:35;;;;;;;4.82;1.40;;;18.40;99.90;;;;;;5042756;28;20203;-79
2022/09/13 02:24:09;;;;;;;3.60;1.33;;;18.30;99.90;;;;;;5045015;28;20234;-80
2022/09/13 02:26:42;;;;;;;4.30;1.30;;;18.30;99.90;;;;;;5044105;28;20646;-80
2022/09/13 02:29:16;;;;;;;3.80;1.20;;;18.20;99.90;;;;;;5044196;28;20230;-80
2022/09/13 02:31:53;;;;;;;5.75;1.17;;;18.30;99.90;;;;;;5042039;28;20215;-80
2022/09/13 02:34:29;;;;;;;4.13;1.42;;;18.50;99.90;;;;;;5043581;28;20199;-79
2022/09/13 02:37:02;;;;;;;6.88;1.52;;;18.50;99.90;;;;;;5045338;28;20219;-80
2022/09/13 02:39:35;;;;;;;5.25;1.25;;;18.50;99.90;;;;;;5047284;28;20875;-80
2022/09/13 02:42:12;;;;;;;4.38;1.30;;;18.60;99.90;;;;;;5043366;28;20212;-80
2022/09/13 02:44:48;;;;;;;1.95;0.98;;;18.70;99.90;;;;;;5043886;28;20207;-81
2022/09/13 02:47:32;;;;;;;4.80;1.10;;;18.80;99.90;;;;;;5043596;28;20257;-79
2022/09/13 02:50:17;;;;;;;4.38;1.30;;;19.00;99.90;;;;;;5042960;28;20804;-79
2022/09/13 02:52:55;;;;;;;3.88;1.17;;;19.10;99.90;;;;;;5043087;28;20697;-79
2022/09/13 02:55:31;;;;;;;2.80;0.93;;;19.20;99.90;;;;;;5047251;28;20670;-78
2022/09/13 02:58:08;;;;;;;4.53;1.50;;;19.30;99.90;;;;;;5046078;28;20337;-79
2022/09/13 03:00:39;;;;;;;4.22;1.30;;;19.10;99.90;;;;;;5047203;28;20191;-79
2022/09/13 03:03:14;;;;;;;4.43;1.55;;;19.00;99.90;;;;;;5043811;28;20196;-79
2022/09/13 03:05:46;;;;;;;4.03;1.25;;;18.80;99.90;;;;;;5042651;28;20236;-78
2022/09/13 03:08:20;;;;;;;2.67;1.05;;;18.70;99.90;;;;;;5048748;28;20211;-79
2022/09/13 03:11:00;;;;;;;3.67;1.48;;;18.60;99.90;;;;;;5044390;28;20277;-78
2022/09/13 03:14:09;;;;;;;13.35;1.90;;;18.50;99.90;;;;;;5047169;28;21055;-79
2022/09/13 03:16:58;;;;;;;2.25;1.00;;;18.30;99.90;;;;;;5045562;28;20200;-79
2022/09/13 03:19:48;;;;;;;4.22;1.17;;;18.30;99.90;;;;;;5045166;28;20196;-79
2022/09/13 03:22:38;;;;;;;3.63;1.13;;;18.20;99.90;;;;;;5046820;28;20222;-79
2022/09/13 03:25:24;;;;;;;2.60;1.08;;;18.20;99.90;;;;;;5048324;28;20196;-80
2022/09/13 03:28:04;;;;;;;4.75;1.15;;;18.30;99.90;;;;;;5047512;28;20639;-80
2022/09/13 03:30:40;;;;;;;6.25;1.00;;;18.40;99.90;;;;;;5046897;28;20291;-80
2022/09/13 03:33:20;;;;;;;4.75;1.25;;;18.50;99.90;;;;;;5046688;28;20231;-80
2022/09/13 03:36:05;;;;;;;4.70;1.60;;;18.50;99.90;;;;;;5049452;28;20199;-78
2022/09/13 03:38:42;;;;;;;6.10;1.10;;;18.50;99.90;;;;;;5049991;28;20246;-79
2022/09/13 03:41:17;;;;;;;5.60;1.30;;;18.70;99.90;;;;;;5047949;28;20679;-80
2022/09/13 03:43:50;;;;;;;5.22;1.30;;;18.70;99.90;;;;;;5050036;28;20200;-80
2022/09/13 03:46:27;;;;;;;4.32;1.00;;;18.70;99.90;;;;;;5045996;28;20314;-81
2022/09/13 03:49:00;;;;;;;6.18;1.33;;;18.80;99.90;;;;;;5050742;28;20204;-80
2022/09/13 03:51:31;;;;;;;5.35;1.15;;;18.80;99.90;;;;;;5050169;28;20196;-80
2022/09/13 03:54:06;;;;;;;4.88;1.20;;;18.80;99.90;;;;;;5051625;28;20662;-80
2022/09/13 03:56:39;;;;;;;8.20;1.33;;;18.80;99.90;;;;;;5050864;28;20211;-80
2022/09/13 03:59:10;;;;;;;4.80;1.25;;;18.70;99.90;;;;;;5051231;28;20293;-79
2022/09/13 04:01:42;;;;;;;3.85;0.98;;;18.80;99.90;;;;;;5050771;28;20196;-80
2022/09/13 04:04:15;;;;;;;6.40;1.17;;;18.70;99.90;;;;;;5049344;28;20678;-79
2022/09/13 04:06:46;;;;;;;3.13;1.23;;;18.80;99.90;;;;;;5049472;28;20200;-80
2022/09/13 04:09:19;;;;;;;4.95;1.42;;;18.90;99.90;;;;;;5052937;28;20200;-80
2022/09/13 04:11:49;;;;;;;2.83;0.90;;;18.90;99.90;;;;;;5050962;28;20219;-80
2022/09/13 04:14:20;;;;;;;2.83;0.95;;;19.00;99.90;;;;;;5050484;28;20208;-80
2022/09/13 04:16:51;;;;;;;4.68;1.13;;;18.70;99.90;;;;;;5049891;28;20666;-80
2022/09/13 04:19:22;;;;;;;5.60;1.48;;;18.70;99.90;;;;;;5048180;28;20662;-80
2022/09/13 04:21:53;;;;;;;6.05;1.27;;;18.70;99.90;;;;;;5049157;28;20208;-79
2022/09/13 04:24:28;;;;;;;5.32;1.30;;;18.70;99.90;;;;;;5049305;28;20631;-79
2022/09/13 04:26:59;;;;;;;3.95;1.25;;;18.60;99.90;;;;;;5047785;28;20203;-79
2022/09/13 04:29:30;;;;;;;2.58;1.00;;;18.60;99.90;;;;;;5049503;28;20597;-79
2022/09/13 04:32:04;;;;;;;5.43;1.30;;;18.70;99.90;;;;;;5049540;28;20220;-79
2022/09/13 04:34:35;;;;;;;3.63;1.00;;;18.60;99.90;;;;;;5053831;28;20196;-79
2022/09/13 04:37:06;;;;;;;2.28;0.90;;;18.40;99.90;;;;;;5048790;28;20211;-79
2022/09/13 04:39:39;;;;;;;2.45;1.00;;;18.40;99.90;;;;;;5049833;28;20239;-79
2022/09/13 04:42:10;;;;;;;4.28;1.08;;;18.40;99.90;;;;;;5049900;28;20568;-78
2022/09/13 04:44:41;;;;;;;4.07;1.25;;;18.50;99.90;;;;;;5051078;28;20211;-79
2022/09/13 04:47:12;;;;;;;4.43;1.20;;;18.50;99.90;;;;;;5049170;28;20204;-79
2022/09/13 04:49:43;;;;;;;3.10;1.05;;;18.50;99.90;;;;;;5048881;28;20204;-79
2022/09/13 04:52:14;;;;;;;2.80;1.00;;;18.50;99.90;;;;;;5048256;28;20724;-79
2022/09/13 04:54:46;;;;;;;3.17;1.00;;;18.60;99.90;;;;;;5047918;28;20220;-79
2022/09/13 04:57:17;;;;;;;2.88;1.17;;;18.70;99.90;;;;;;5049159;28;20203;-80
2022/09/13 04:59:48;;;;;;;7.47;1.20;;;18.70;99.90;;;;;;5047231;28;20200;-79
2022/09/13 05:02:19;;;;;;;3.80;1.02;;;18.70;99.90;;;;;;5049407;28;20291;-79
2022/09/13 05:04:50;;;;;;;1.80;0.80;;;18.70;99.90;;;;;;5045194;28;20196;-79
2022/09/13 05:07:21;;;;;;;1.45;0.75;;;18.80;99.90;;;;;;5046637;28;20200;-79
2022/09/13 05:09:53;;;;;;;4.95;1.08;;;18.90;99.90;;;;;;5050699;28;20192;-79
2022/09/13 05:12:24;;;;;;;4.07;1.00;;;19.00;99.90;;;;;;5048236;28;20227;-79
2022/09/13 05:14:55;;;;;;;2.92;0.80;;;19.10;99.90;;;;;;5044517;28;20227;-79
2022/09/13 05:17:26;;;;;;;3.60;0.73;;;19.10;99.90;;;;;;5043367;28;20206;-79
2022/09/13 05:19:56;;;;;;;4.22;1.13;;;19.10;99.90;;;;;;5044142;28;20277;-79
2022/09/13 05:22:27;;;;;;;3.67;1.05;;;18.80;99.90;;;;;;5045268;28;20200;-79
2022/09/13 05:25:00;;;;;;;3.78;1.10;;;18.60;99.90;;;;;;5044934;28;20596;-78
2022/09/13 05:27:31;;;;;;;2.75;0.90;;;18.50;99.90;;;;;;5045313;28;20305;-79
2022/09/13 05:30:02;;;;;;;2.83;0.90;;;18.70;99.90;;;;;;5045017;28;20762;-79
2022/09/13 05:32:34;;;;;;;3.85;1.27;;;18.70;99.90;;;;;;5049113;28;21157;-80
2022/09/13 05:35:05;;;;;;;4.38;1.08;;;18.80;99.90;;;;;;5046164;28;20200;-79
2022/09/13 05:37:36;;;;;;;3.30;1.05;;;18.90;99.90;;;;;;5048654;28;20293;-78
2022/09/13 05:40:10;;;;;;;4.95;1.10;;;18.70;99.90;;;;;;5048268;28;20231;-78
2022/09/13 05:42:40;;;;;;;4.32;0.90;;;18.60;99.90;;;;;;5048007;28;20954;-78
2022/09/13 05:45:12;;;;;;;4.40;1.00;;;18.60;99.90;;;;;;5049571;28;20200;-79
2022/09/13 05:47:43;;;;;;;3.83;0.70;;;18.50;99.90;;;;;;5047131;28;20204;-78
2022/09/13 05:50:13;;;;;;;4.47;1.10;;;18.60;99.90;;;;;;5046331;28;20205;-79
2022/09/13 05:52:44;;;;;;;3.00;1.08;;;18.40;99.90;;;;;;5047154;28;20223;-79
2022/09/13 05:55:17;;;;;;;4.75;0.77;;;18.50;99.90;;;;;;5047067;28;20200;-79
2022/09/13 05:57:48;;;;;;;2.70;0.90;;;18.60;99.90;;;;;;5048773;28;20196;-79
2022/09/13 06:00:19;;;;;;;1.75;0.70;;;18.60;99.90;;;;;;5047453;28;20219;-78
2022/09/13 06:02:50;;;;;;;5.32;1.17;;;18.80;99.90;;;;;;5047694;28;20207;-79
2022/09/13 06:05:21;;;;;;;2.67;0.82;;;18.90;99.90;;;;;;5045953;28;20260;-79
2022/09/13 06:07:52;;;;;;;2.38;0.80;;;19.00;99.90;;;;;;5049274;28;20203;-80
2022/09/13 06:10:25;;;;;;;4.90;1.20;;;19.20;99.90;;;;;;5049457;28;20246;-80
2022/09/13 06:12:55;;;;;;;4.18;0.98;;;19.30;99.90;;;;;;5049068;28;20219;-79
2022/09/13 06:15:26;;;;;;;5.40;0.93;;;19.40;99.90;;;;;;5047455;28;20214;-79
2022/09/13 06:17:57;;;;;;;5.63;1.00;;;19.50;99.90;;;;;;5047944;28;20283;-79
2022/09/13 06:20:29;;;;;;;4.63;0.77;;;19.60;99.90;;;;;;5047567;28;20211;-79
2022/09/13 06:23:00;;;;;;;2.78;0.90;;;19.50;99.90;;;;;;5048271;28;20204;-79
2022/09/13 06:25:36;;;;;;;7.53;1.13;;;19.60;99.90;;;;;;5045878;28;20200;-79
2022/09/13 06:28:07;;;;;;;3.88;1.00;;;19.70;99.90;;;;;;5047774;28;20199;-79
2022/09/13 06:30:38;;;;;;;4.75;1.00;;;20.00;99.90;;;;;;5050781;28;20196;-80
2022/09/13 06:33:09;;;;;;;4.95;1.00;;;20.00;99.90;;;;;;5048990;28;20220;-80
2022/09/13 06:35:40;;;;;;;4.95;1.23;;;20.10;99.90;;;;;;5047359;28;20241;-80
2022/09/13 06:38:11;;;;;;;4.30;1.00;;;20.30;99.90;;;;;;5050182;28;21280;-79
2022/09/13 06:40:44;;;;;;;4.80;1.17;;;20.40;99.90;;;;;;5048451;28;20261;-79
2022/09/13 06:43:14;;;;;;;2.13;1.13;;;20.30;99.90;;;;;;5048766;28;20202;-78
2022/09/13 06:45:45;;;;;;;2.05;0.82;;;20.40;99.90;;;;;;5047823;28;20224;-79
2022/09/13 06:48:17;;;;;;;5.05;0.88;;;20.50;99.90;;;;;;5044134;28;20566;-79
2022/09/13 06:50:47;;;;;;;3.53;1.00;;;20.50;99.90;;;;;;5043880;28;20701;-80
2022/09/13 06:53:18;;;;;;;2.63;0.77;;;20.40;99.90;;;;;;5042974;28;20219;-79
2022/09/13 06:55:51;;;;;;;2.95;0.82;;;20.20;99.90;;;;;;5042873;28;20214;-80
2022/09/13 06:58:22;;;;;;;2.33;0.77;;;20.10;99.90;;;;;;5042659;28;20214;-80
2022/09/13 07:00:53;;;;;;;4.00;0.93;;;19.80;99.90;;;;;;5042904;28;20196;-79
2022/09/13 07:03:23;;;;;;;4.32;1.10;;;19.50;99.90;;;;;;5042686;28;20196;-78
2022/09/13 07:05:54;;;;;;;2.85;1.00;;;19.20;99.90;;;;;;5042446;28;20204;-78
2022/09/13 07:08:25;;;;;;;4.13;1.42;;;19.00;99.90;;;;;;5048029;28;20204;-78
2022/09/13 07:11:00;;;;;;;5.85;1.38;;;18.70;99.90;;;;;;5044597;28;20207;-79
2022/09/13 07:13:30;;;;;;;6.47;1.30;;;18.40;99.90;;;;;;5042237;28;20234;-78
2022/09/13 07:16:06;;;;;;;4.20;1.40;;;18.30;99.90;;;;;;5042687;28;20426;-79
2022/09/13 07:18:38;;;;;;;6.20;1.50;;;18.10;99.90;;;;;;5043972;28;20210;-79
2022/09/13 07:21:10;;;;;;;4.80;1.58;;;18.00;99.90;;;;;;5043264;28;20663;-79
2022/09/13 07:23:42;;;;;;;3.75;1.17;;;17.80;99.90;;;;;;5043868;28;20202;-79
2022/09/13 07:26:15;;;;;;;2.67;1.13;;;17.80;99.90;;;;;;5044810;28;20224;-79
2022/09/13 07:28:46;;;;;;;6.93;1.10;;;17.70;99.90;;;;;;5046316;28;20204;-78
2022/09/13 07:31:19;;;;;;;2.20;1.00;;;17.50;99.90;;;;;;5045290;28;20200;-79
2022/09/13 07:33:55;;;;;;;3.53;1.00;;;17.40;99.90;;;;;;5046849;28;20227;-80
2022/09/13 07:36:27;;;;;;;2.95;0.93;;;17.40;99.90;;;;;;5042558;28;20218;-80
2022/09/13 07:38:58;;;;;;;4.45;1.17;;;17.20;99.90;;;;;;5042773;28;20713;-81
2022/09/13 07:41:32;;;;;;;4.43;0.90;;;17.10;99.90;;;;;;5043606;28;20204;-83
2022/09/13 07:44:03;;;;;;;3.55;1.02;;;16.90;99.90;;;;;;5049193;28;21177;-80
2022/09/13 07:46:38;;;;;;;3.33;0.90;;;16.90;99.90;;;;;;5046057;28;20196;-79
2022/09/13 07:49:09;;;;;;;10.73;1.00;;;16.80;99.90;;;;;;5045113;28;20302;-79
2022/09/13 07:51:41;;;;;;;3.20;0.80;;;16.80;99.90;;;;;;5046363;28;20219;-79
2022/09/13 07:54:18;;;;;;;3.55;0.90;;;16.70;99.90;;;;;;5044839;28;20694;-79
2022/09/13 07:56:51;;;;;;;4.90;1.10;;;16.70;99.90;;;;;;5042824;28;20200;-78
2022/09/13 07:59:22;;;;;;;4.93;1.00;;;16.60;99.90;;;;;;5042628;28;20580;-79
2022/09/13 08:01:53;;;;;;;4.85;0.95;;;16.60;99.90;;;;;;5042510;28;20575;-79
2022/09/13 08:04:27;;;;;;;4.18;0.95;;;16.60;99.90;;;;;;5040769;28;20211;-79
2022/09/13 08:06:57;;;;;;;5.07;1.02;;;16.50;99.90;;;;;;5042478;28;20204;-77
2022/09/13 08:09:28;;;;;;;2.53;0.98;;;16.50;99.90;;;;;;5046748;28;20207;-78
2022/09/13 08:12:01;;;;;;;4.15;1.45;;;16.50;99.90;;;;;;5041937;28;20215;-79
2022/09/13 08:14:32;;;;;;;4.78;1.10;;;16.50;99.90;;;;;;5050928;28;20488;-78
2022/09/13 08:17:02;;;;;;;4.90;1.20;;;16.50;99.90;;;;;;5041980;28;20202;-79
2022/09/13 08:19:33;;;;;;;2.78;1.05;;;16.50;99.90;;;;;;5042134;28;20319;-78
2022/09/13 08:22:04;;;;;;;4.72;1.13;;;16.50;99.90;;;;;;5040957;28;20207;-79
2022/09/13 08:24:35;;;;;;;4.07;1.25;;;16.50;99.90;;;;;;5041906;28;20200;-79
2022/09/13 08:27:07;;;;;;;2.85;1.40;;;16.50;99.90;;;;;;5042184;28;20204;-78
2022/09/13 08:29:38;;;;;;;2.92;1.23;;;16.50;99.90;;;;;;5042915;28;20678;-80
2022/09/13 08:32:10;;;;;;;5.20;1.50;;;16.50;99.90;;;;;;5042666;28;20197;-78
2022/09/13 08:34:41;;;;;;;2.65;1.10;;;16.50;99.90;;;;;;5051207;28;20247;-79
2022/09/13 08:37:13;;;;;;;5.45;1.55;;;16.50;99.90;;;;;;5052217;28;20675;-78
2022/09/13 08:39:44;;;;;;;3.60;1.35;;;16.50;99.90;;;;;;5045174;28;20623;-78
2022/09/13 08:42:33;;;;;;;4.15;1.50;;;16.40;99.90;;;;;;5046544;28;20206;-78
2022/09/13 08:45:04;;;;;;;3.50;1.20;;;16.40;99.90;;;;;;5045504;28;20208;-78
2022/09/13 08:47:42;;;;;;;3.78;1.30;;;16.40;99.90;;;;;;5044983;28;20192;-79
2022/09/13 08:50:19;;;;;;;4.13;1.13;;;16.30;99.90;;;;;;5045273;28;20200;-78
2022/09/13 08:53:06;;;;;;;5.03;1.20;;;16.30;99.90;;;;;;5045063;28;20200;-78
2022/09/13 08:55:45;;;;;;;4.30;1.00;;;16.30;99.90;;;;;;5043981;28;20244;-78
2022/09/13 08:58:37;;;;;;;5.72;1.35;;;16.20;99.90;;;;;;5044581;28;20670;-78
2022/09/13 09:01:14;;;;;;;3.17;0.93;;;16.30;99.90;;;;;;5045557;28;20196;-78
2022/09/13 09:03:51;;;;;;;4.78;1.08;;;16.30;99.90;;;;;;5045263;28;20286;-80
2022/09/13 09:06:23;;;;;;;4.15;1.20;;;16.30;99.90;;;;;;5045411;28;20233;-81
2022/09/13 09:08:59;;;;;;;4.85;1.10;;;16.20;99.90;;;;;;5044848;28;20217;-80
2022/09/13 09:11:39;;;;;;;4.15;1.10;;;16.20;99.90;;;;;;5044837;28;21568;-80
2022/09/13 09:14:20;;;;;;;6.40;1.30;;;16.20;99.90;;;;;;5047406;28;20220;-80
2022/09/13 09:16:55;;;;;;;4.55;1.13;;;16.20;99.90;;;;;;5047211;28;20196;-81
2022/09/13 09:19:29;;;;;;;3.88;1.15;;;16.20;99.90;;;;;;5048048;28;20207;-80
2022/09/13 09:22:02;;;;;;;2.80;1.30;;;16.20;99.90;;;;;;5047053;28;20212;-80
2022/09/13 09:24:37;;;;;;;3.53;1.45;;;16.20;99.90;;;;;;5048641;28;20667;-79
2022/09/13 09:27:17;;;;;;;3.55;1.10;;;16.20;99.90;;;;;;5049202;28;20200;-79
2022/09/13 09:29:56;;;;;;;4.93;1.80;;;16.20;99.90;;;;;;5046775;28;20196;-81
2022/09/13 09:32:46;;;;;;;8.57;2.90;;;16.20;99.90;;;;;;5047284;28;20211;-83
2022/09/13 09:35:27;;;;;;;6.32;1.63;;;16.10;99.90;;;;;;5050438;28;20609;-82
2022/09/13 09:38:21;;;;;;;4.60;1.40;;;16.10;99.90;;;;;;5044823;28;20290;-82
2022/09/13 09:40:52;;;;;;;3.53;1.42;;;16.10;99.90;;;;;;5045829;28;20207;-84
2022/09/13 09:43:32;;;;;;;2.88;1.50;;;16.10;99.90;;;;;;5051380;28;21532;-82
2022/09/13 09:46:14;;;;;;;5.43;1.55;;;16.00;99.90;;;;;;5047490;28;20294;-82
2022/09/13 09:52:01;;;;;;;3.28;1.15;;;16.00;99.90;;;;;;5044685;28;20795;-79
2022/09/13 09:54:32;;;;;;;3.08;1.33;;;16.00;99.90;;;;;;5051386;28;20489;-81
2022/09/13 09:57:03;;;;;;;3.50;1.35;;;16.00;99.90;;;;;;5048388;28;20565;-80
2022/09/13 09:59:37;;;;;;;3.80;1.40;;;16.00;99.90;;;;;;5048875;28;20551;-81
2022/09/13 10:02:20;;;;;;;2.33;1.27;;;16.00;99.90;;;;;;5048161;28;20206;-81
2022/09/13 10:05:04;;;;;;;4.13;1.40;;;15.90;99.90;;;;;;5048388;28;20195;-80
2022/09/13 10:07:36;;;;;;;2.60;1.20;;;15.90;99.90;;;;;;5048392;28;20214;-80
2022/09/13 10:10:11;;;;;;;2.45;1.20;;;15.90;99.90;;;;;;5053294;28;20196;-82
2022/09/13 10:12:43;;;;;;;2.38;0.95;;;15.90;99.90;;;;;;5047474;28;20230;-81
2022/09/13 10:15:19;;;;;;;3.95;1.17;;;15.90;99.90;;;;;;5051075;28;20250;-80
2022/09/13 10:18:17;;;;;;;3.30;1.30;;;15.80;99.90;;;;;;5047115;28;21966;-81
2022/09/13 10:21:03;;;;;;;3.47;1.05;;;15.80;99.90;;;;;;5047405;28;20211;-81
2022/09/13 10:23:34;;;;;;;4.45;1.27;;;15.90;99.90;;;;;;5047599;28;21852;-82
2022/09/13 10:26:12;;;;;;;3.90;1.17;;;15.80;99.90;;;;;;5048320;28;20199;-81
2022/09/13 10:28:48;;;;;;;3.05;1.40;;;15.80;99.90;;;;;;5046288;28;20548;-81
2022/09/13 10:31:22;;;;;;;3.67;1.10;;;15.90;99.90;;;;;;5045340;28;20203;-79
2022/09/13 10:34:02;;;;;;;4.50;1.40;;;15.90;99.90;;;;;;5054555;28;20349;-82
2022/09/13 10:36:35;;;;;;;1.90;1.00;;;15.90;99.90;;;;;;5056001;28;20204;-81
2022/09/13 10:39:23;;;;;;;3.95;1.30;;;15.90;99.90;;;;;;5058941;28;20238;-81
2022/09/13 10:41:58;;;;;;;2.72;1.20;;;15.90;99.90;;;;;;5060877;28;20670;-82
2022/09/13 10:44:46;;;;;;;5.20;1.25;;;16.00;99.90;;;;;;5069309;28;20219;-82
2022/09/13 10:47:33;;;;;;;3.17;1.30;;;16.00;99.90;;;;;;5069504;28;20211;-82
2022/09/13 10:50:30;;;;;;;2.85;1.08;;;16.00;99.90;;;;;;5072183;28;20211;-81
2022/09/13 10:53:04;;;;;;;2.92;1.30;;;16.00;99.90;;;;;;5066984;28;20238;-82
2022/09/13 10:56:01;;;;;;;;;;;;;;;;;;;;;
2022/09/13 10:58:33;;;;;;;3.55;0.88;;;16.00;99.90;;;;;;5068067;28;20677;-83
2022/09/13 11:01:36;;;;;;;3.83;1.02;;;16.00;99.90;;;;;;5061294;28;20235;-83
2022/09/13 11:04:51;;;;;;;3.10;1.00;;;16.00;99.90;;;;;;5067838;28;20200;-85
2022/09/13 11:07:50;;;;;;;4.88;1.10;;;16.10;99.90;;;;;;5067382;28;20228;-85
2022/09/13 11:10:29;;;;;;;2.35;1.00;;;16.10;99.90;;;;;;5062028;28;20238;-83
2022/09/13 11:16:20;;;;;;;3.55;0.93;;;16.10;99.90;;;;;;5065678;28;20273;-85
2022/09/13 11:19:13;;;;;;;2.28;0.80;;;16.10;99.90;;;;;;5067080;28;20202;-84
2022/09/13 11:21:57;;;;;;;3.85;1.00;;;16.10;99.90;;;;;;5060596;28;20197;-81
2022/09/13 11:28:00;;;;;;;3.65;1.30;;;16.10;99.90;;;;;;5064266;28;20195;-84
2022/09/13 11:30:40;;;;;;;2.35;1.02;;;16.10;99.90;;;;;;5071006;28;20190;-83
2022/09/13 11:36:50;;;;;;;2.60;0.80;;;16.00;99.90;;;;;;5069710;28;20211;-83
2022/09/13 11:42:43;;;;;;;3.00;0.93;;;16.00;99.90;;;;;;5067437;28;20621;-85
2022/09/13 11:45:37;;;;;;;2.30;0.90;;;15.90;99.90;;;;;;5061953;28;20200;-82
2022/09/13 11:48:28;;;;;;;4.55;1.05;;;15.90;99.90;;;;;;5064409;28;20188;-87
2022/09/13 11:51:09;;;;;;;2.80;0.80;;;15.80;99.90;;;;;;5077690;28;20204;-82
2022/09/13 12:00:14;;;;;;;2.78;1.00;;;15.80;99.90;;;;;;5059233;28;20192;-85
2022/09/13 12:02:53;;;;;;;4.57;1.70;;;15.70;99.90;;;;;;5073335;28;20223;-81
2022/09/13 12:05:41;;;;;;;3.28;1.42;;;15.60;99.90;;;;;;5061351;28;20211;-83
2022/09/13 12:08:43;;;;;;;5.63;1.50;;;15.40;99.90;;;;;;5067078;28;20210;-84
2022/09/13 12:11:20;;;;;;;3.05;1.50;;;15.30;99.90;;;;;;5047173;28;20242;-82
2022/09/13 12:13:57;;;;;;;2.83;1.33;;;15.20;99.90;;;;;;5066673;28;20267;-83
2022/09/13 12:17:10;;;;;;;2.55;1.27;;;15.20;99.90;;;;;;5063007;28;20207;-81
2022/09/13 12:19:53;;;;;;;6.75;1.92;;;15.10;99.90;;;;;;5069654;28;20207;-80
2022/09/13 12:22:30;;;;;;;4.93;1.63;;;14.90;99.90;;;;;;5067026;28;20217;-79
2022/09/13 12:25:09;;;;;;;4.50;1.60;;;14.80;99.90;;;;;;5068290;28;20199;-81
2022/09/13 12:27:47;;;;;;;2.95;1.52;;;14.80;99.90;;;;;;5066792;28;21549;-80
2022/09/13 12:30:24;;;;;;;4.25;1.45;;;14.70;99.90;;;;;;5070552;28;20210;-81
2022/09/13 12:33:18;;;;;;;3.15;1.63;;;14.70;99.90;;;;;;5046454;28;20205;-82
2022/09/13 12:36:07;;;;;;;3.58;1.70;;;14.60;99.90;;;;;;5066475;28;20228;-80
2022/09/13 12:39:06;;;;;;;6.20;1.67;;;14.60;99.90;;;;;;5057878;28;20657;-81
2022/09/13 12:41:48;;;;;;;6.72;1.75;;;14.50;99.90;;;;;;5053169;28;20752;-81
2022/09/13 12:45:02;;;;;;;3.58;1.50;;;14.50;99.90;;;;;;5046562;28;20497;-84
2022/09/13 12:48:00;;;;;;;3.95;1.80;;;14.50;99.90;;;;;;5046537;28;20200;-83
2022/09/13 12:50:52;;;;;;;7.25;1.63;;;14.50;99.90;;;;;;5042963;28;20210;-83
2022/09/13 12:54:06;;;;;;;3.63;1.63;;;14.50;99.90;;;;;;5045727;28;20223;-82
2022/09/13 12:56:52;;;;;;;4.93;1.73;;;14.50;99.90;;;;;;5004393;28;20200;-83
2022/09/13 12:59:43;;;;;;;4.32;1.50;;;14.40;99.90;;;;;;5045832;28;20204;-83
2022/09/13 13:02:30;;;;;;;2.72;1.40;;;14.40;99.90;;;;;;5046157;28;20703;-82
2022/09/13 13:05:07;;;;;;;4.43;1.38;;;14.30;99.90;;;;;;5043838;28;20212;-82
2022/09/13 13:07:42;;;;;;;3.05;1.42;;;14.30;99.90;;;;;;5049219;28;20670;-81
2022/09/13 13:10:29;;;;;;;2.90;1.40;;;14.30;99.90;;;;;;5045606;28;21555;-81
2022/09/13 13:13:14;;;;;;;4.55;1.65;;;14.40;99.90;;;;;;5045057;28;20196;-81
2022/09/13 13:16:04;;;;;;;4.03;1.50;;;14.30;99.90;;;;;;5043100;28;20224;-81
2022/09/13 13:18:47;;;;;;;5.85;1.42;;;14.30;99.90;;;;;;5045418;28;20667;-80
2022/09/13 13:21:42;;;;;;;3.58;1.45;;;14.40;99.90;;;;;;5044780;28;20196;-81
2022/09/13 13:24:53;;;;;;;3.45;1.13;;;14.40;99.90;;;;;;5044931;28;20204;-80
2022/09/13 13:27:53;;;;;;;4.10;1.23;;;14.30;99.90;;;;;;5036916;28;20196;-82
2022/09/13 13:30:55;;;;;;;3.72;1.13;;;14.30;99.90;;;;;;5045666;28;20195;-81
2022/09/13 13:33:30;;;;;;;3.35;1.60;;;14.30;99.90;;;;;;5036726;28;20205;-82
2022/09/13 13:36:28;;;;;;;5.65;1.50;;;14.30;99.90;;;;;;5046467;28;20314;-82
2022/09/13 13:39:02;;;;;;;2.20;1.20;;;14.30;99.90;;;;;;5047852;28;20246;-82
2022/09/13 13:41:53;;;;;;;2.67;1.15;;;14.30;99.90;;;;;;5050261;28;20738;-81
2022/09/13 13:45:05;;;;;;;2.88;1.08;;;14.30;99.90;;;;;;5046182;28;20328;-82
2022/09/13 13:48:14;;;;;;;6.85;1.50;;;14.30;99.90;;;;;;5046601;28;20280;-82
2022/09/13 13:51:19;;;;;;;3.03;1.23;;;14.30;99.90;;;;;;5048239;28;20238;-83
2022/09/13 13:53:55;;;;;;;6.43;1.38;;;14.40;99.90;;;;;;5046711;28;20204;-78
2022/09/13 13:56:34;;;;;;;2.92;1.38;;;14.20;99.90;;;;;;5045224;28;20701;-81
2022/09/13 13:59:13;;;;;;;4.82;1.15;;;14.20;99.90;;;;;;5045255;28;21543;-81
2022/09/13 14:01:49;;;;;;;2.38;1.10;;;14.10;99.90;;;;;;5045378;28;20203;-80
2022/09/13 14:04:51;;;;;;;3.50;1.20;;;14.10;99.90;;;;;;5042154;28;20204;-80